sensor_id;sensor_type;location;lat;lon;timestamp;temperature;humidity
17599;DHT22;8918;52.092;5.232;2023-03-18T00:00:45;12.10;99.90
17599;DHT22;8918;52.092;5.232;2023-03-18T00:03:11;12.10;99.90
17599;DHT22;8918;52.092;5.232;2023-03-18T00:05:37;12.10;99.90
17599;DHT22;8918;52.092;5.232;2023-03-18T00:08:04;12.00;99.90
17599;DHT22;8918;52.092;5.232;2023-03-18T00:10:31;12.00;99.90
17599;DHT22;8918;52.092;5.232;2023-03-18T00:12:58;12.00;99.90
17599;DHT22;8918;52.092;5.232;2023-03-18T00:15:24;12.00;99.90
17599;DHT22;8918;52.092;5.232;2023-03-18T00:17:49;12.00;99.90
17599;DHT22;8918;52.092;5.232;2023-03-18T00:20:16;12.00;99.90
17599;DHT22;8918;52.092;5.232;2023-03-18T00:22:43;12.00;99.90
17599;DHT22;8918;52.092;5.232;2023-03-18T00:25:13;11.90;99.90
17599;DHT22;8918;52.092;5.232;2023-03-18T00:27:39;12.00;99.90
17599;DHT22;8918;52.092;5.232;2023-03-18T00:30:06;11.90;99.90
17599;DHT22;8918;52.092;5.232;2023-03-18T00:32:32;11.90;99.90
17599;DHT22;8918;52.092;5.232;2023-03-18T00:34:58;11.90;99.90
17599;DHT22;8918;52.092;5.232;2023-03-18T00:37:25;11.90;99.90
17599;DHT22;8918;52.092;5.232;2023-03-18T00:40:02;11.90;99.90
17599;DHT22;8918;52.092;5.232;2023-03-18T00:42:32;11.80;99.90
17599;DHT22;8918;52.092;5.232;2023-03-18T00:45:04;11.70;99.90
17599;DHT22;8918;52.092;5.232;2023-03-18T00:47:31;11.70;99.90
17599;DHT22;8918;52.092;5.232;2023-03-18T00:49:57;11.70;99.90
17599;DHT22;8918;52.092;5.232;2023-03-18T00:52:22;11.60;99.90
17599;DHT22;8918;52.092;5.232;2023-03-18T00:54:48;11.60;99.90
17599;DHT22;8918;52.092;5.232;2023-03-18T00:57:14;11.50;99.90
17599;DHT22;8918;52.092;5.232;2023-03-18T00:59:40;11.60;99.90
17599;DHT22;8918;52.092;5.232;2023-03-18T01:02:06;11.70;99.90
17599;DHT22;8918;52.092;5.232;2023-03-18T01:04:32;11.80;99.90
17599;DHT22;8918;52.092;5.232;2023-03-18T01:06:58;11.80;99.90
17599;DHT22;8918;52.092;5.232;2023-03-18T01:09:23;11.70;99.90
17599;DHT22;8918;52.092;5.232;2023-03-18T01:11:49;11.60;99.90
17599;DHT22;8918;52.092;5.232;2023-03-18T01:14:15;11.60;99.90
17599;DHT22;8918;52.092;5.232;2023-03-18T01:16:41;11.50;99.90
17599;DHT22;8918;52.092;5.232;2023-03-18T01:19:06;11.60;99.90
17599;DHT22;8918;52.092;5.232;2023-03-18T01:21:32;11.50;99.90
17599;DHT22;8918;52.092;5.232;2023-03-18T01:23:58;11.50;99.90
17599;DHT22;8918;52.092;5.232;2023-03-18T01:26:25;11.40;99.90
17599;DHT22;8918;52.092;5.232;2023-03-18T01:28:51;11.40;99.90
17599;DHT22;8918;52.092;5.232;2023-03-18T01:31:17;11.30;99.90
17599;DHT22;8918;52.092;5.232;2023-03-18T01:33:44;11.30;99.90
17599;DHT22;8918;52.092;5.232;2023-03-18T01:36:10;11.30;99.90
17599;DHT22;8918;52.092;5.232;2023-03-18T01:38:36;11.30;99.90
17599;DHT22;8918;52.092;5.232;2023-03-18T01:41:03;11.30;99.90
17599;DHT22;8918;52.092;5.232;2023-03-18T01:43:32;11.30;99.90
17599;DHT22;8918;52.092;5.232;2023-03-18T01:46:22;11.40;99.90
17599;DHT22;8918;52.092;5.232;2023-03-18T01:48:48;11.40;99.90
17599;DHT22;8918;52.092;5.232;2023-03-18T01:51:16;11.50;99.90
17599;DHT22;8918;52.092;5.232;2023-03-18T01:53:45;11.50;99.90
17599;DHT22;8918;52.092;5.232;2023-03-18T01:56:12;11.50;99.90
17599;DHT22;8918;52.092;5.232;2023-03-18T01:58:43;11.50;99.90
17599;DHT22;8918;52.092;5.232;2023-03-18T02:01:57;11.40;99.90
17599;DHT22;8918;52.092;5.232;2023-03-18T02:04:23;11.40;99.90
17599;DHT22;8918;52.092;5.232;2023-03-18T02:06:50;11.40;99.90
17599;DHT22;8918;52.092;5.232;2023-03-18T02:09:16;11.40;99.90
17599;DHT22;8918;52.092;5.232;2023-03-18T02:11:44;11.40;99.90
17599;DHT22;8918;52.092;5.232;2023-03-18T02:14:12;11.40;99.90
17599;DHT22;8918;52.092;5.232;2023-03-18T02:17:00;11.40;99.90
17599;DHT22;8918;52.092;5.232;2023-03-18T02:27:45;11.50;99.90
17599;DHT22;8918;52.092;5.232;2023-03-18T02:30:26;11.50;99.90
17599;DHT22;8918;52.092;5.232;2023-03-18T02:32:54;11.50;99.90
17599;DHT22;8918;52.092;5.232;2023-03-18T02:35:21;11.50;99.90
17599;DHT22;8918;52.092;5.232;2023-03-18T02:37:46;11.40;99.90
17599;DHT22;8918;52.092;5.232;2023-03-18T02:42:49;11.40;99.90
17599;DHT22;8918;52.092;5.232;2023-03-18T02:45:36;11.40;99.90
17599;DHT22;8918;52.092;5.232;2023-03-18T02:48:06;11.30;99.90
17599;DHT22;8918;52.092;5.232;2023-03-18T02:50:32;11.30;99.90
17599;DHT22;8918;52.092;5.232;2023-03-18T02:53:00;11.30;99.90
17599;DHT22;8918;52.092;5.232;2023-03-18T02:55:26;11.30;99.90
17599;DHT22;8918;52.092;5.232;2023-03-18T02:57:52;11.30;99.90
17599;DHT22;8918;52.092;5.232;2023-03-18T03:00:18;11.30;99.90
17599;DHT22;8918;52.092;5.232;2023-03-18T03:02:43;11.30;99.90
17599;DHT22;8918;52.092;5.232;2023-03-18T03:05:09;11.30;99.90
17599;DHT22;8918;52.092;5.232;2023-03-18T03:07:35;11.30;99.90
17599;DHT22;8918;52.092;5.232;2023-03-18T03:10:03;11.40;99.90
17599;DHT22;8918;52.092;5.232;2023-03-18T03:12:29;11.40;99.90
17599;DHT22;8918;52.092;5.232;2023-03-18T03:14:55;11.40;99.90
17599;DHT22;8918;52.092;5.232;2023-03-18T03:17:21;11.40;99.90
17599;DHT22;8918;52.092;5.232;2023-03-18T03:19:47;11.40;99.90
17599;DHT22;8918;52.092;5.232;2023-03-18T03:22:12;11.40;99.90
17599;DHT22;8918;52.092;5.232;2023-03-18T03:24:38;11.40;99.90
17599;DHT22;8918;52.092;5.232;2023-03-18T03:27:04;11.40;99.90
17599;DHT22;8918;52.092;5.232;2023-03-18T03:29:30;11.30;99.90
17599;DHT22;8918;52.092;5.232;2023-03-18T03:31:55;11.30;99.90
17599;DHT22;8918;52.092;5.232;2023-03-18T03:34:21;11.30;99.90
17599;DHT22;8918;52.092;5.232;2023-03-18T03:36:47;11.30;99.90
17599;DHT22;8918;52.092;5.232;2023-03-18T03:39:13;11.30;99.90
17599;DHT22;8918;52.092;5.232;2023-03-18T03:41:39;11.40;99.90
17599;DHT22;8918;52.092;5.232;2023-03-18T03:44:04;11.40;99.90
17599;DHT22;8918;52.092;5.232;2023-03-18T03:46:30;11.40;99.90
17599;DHT22;8918;52.092;5.232;2023-03-18T03:48:56;11.40;99.90
17599;DHT22;8918;52.092;5.232;2023-03-18T03:51:22;11.40;99.90
17599;DHT22;8918;52.092;5.232;2023-03-18T03:53:48;11.40;99.90
17599;DHT22;8918;52.092;5.232;2023-03-18T03:56:15;11.40;99.90
17599;DHT22;8918;52.092;5.232;2023-03-18T03:58:42;11.40;99.90
17599;DHT22;8918;52.092;5.232;2023-03-18T04:01:07;11.40;99.90
17599;DHT22;8918;52.092;5.232;2023-03-18T04:03:33;11.40;99.90
17599;DHT22;8918;52.092;5.232;2023-03-18T04:05:59;11.40;99.90
17599;DHT22;8918;52.092;5.232;2023-03-18T04:08:24;11.40;99.90
17599;DHT22;8918;52.092;5.232;2023-03-18T04:10:50;11.40;99.90
17599;DHT22;8918;52.092;5.232;2023-03-18T04:13:16;11.30;99.90
17599;DHT22;8918;52.092;5.232;2023-03-18T04:15:41;11.30;99.90
17599;DHT22;8918;52.092;5.232;2023-03-18T04:18:07;11.40;99.90
17599;DHT22;8918;52.092;5.232;2023-03-18T04:20:35;11.40;99.90
17599;DHT22;8918;52.092;5.232;2023-03-18T04:23:01;11.40;99.90
17599;DHT22;8918;52.092;5.232;2023-03-18T04:25:27;11.40;99.90
17599;DHT22;8918;52.092;5.232;2023-03-18T04:27:52;11.40;99.90
17599;DHT22;8918;52.092;5.232;2023-03-18T04:30:18;11.40;99.90
17599;DHT22;8918;52.092;5.232;2023-03-18T04:32:49;11.40;99.90
17599;DHT22;8918;52.092;5.232;2023-03-18T04:35:16;11.30;99.90
17599;DHT22;8918;52.092;5.232;2023-03-18T04:37:42;11.40;99.90
17599;DHT22;8918;52.092;5.232;2023-03-18T04:40:10;11.30;99.90
17599;DHT22;8918;52.092;5.232;2023-03-18T04:42:36;11.40;99.90
17599;DHT22;8918;52.092;5.232;2023-03-18T04:45:03;11.30;99.90
17599;DHT22;8918;52.092;5.232;2023-03-18T04:47:29;11.20;99.90
17599;DHT22;8918;52.092;5.232;2023-03-18T04:49:57;11.20;99.90
17599;DHT22;8918;52.092;5.232;2023-03-18T04:52:22;11.20;99.90
17599;DHT22;8918;52.092;5.232;2023-03-18T04:54:49;11.20;99.90
17599;DHT22;8918;52.092;5.232;2023-03-18T04:57:15;11.20;99.90
17599;DHT22;8918;52.092;5.232;2023-03-18T04:59:41;11.20;99.90
17599;DHT22;8918;52.092;5.232;2023-03-18T05:02:07;11.10;99.90
17599;DHT22;8918;52.092;5.232;2023-03-18T05:04:33;11.10;99.90
17599;DHT22;8918;52.092;5.232;2023-03-18T05:06:59;11.00;99.90
17599;DHT22;8918;52.092;5.232;2023-03-18T05:09:25;11.10;99.90
17599;DHT22;8918;52.092;5.232;2023-03-18T05:11:52;11.10;99.90
17599;DHT22;8918;52.092;5.232;2023-03-18T05:14:17;11.10;99.90
17599;DHT22;8918;52.092;5.232;2023-03-18T05:16:43;11.20;99.90
17599;DHT22;8918;52.092;5.232;2023-03-18T05:19:09;11.20;99.90
17599;DHT22;8918;52.092;5.232;2023-03-18T05:21:35;11.10;99.90
17599;DHT22;8918;52.092;5.232;2023-03-18T05:24:01;11.20;99.90
17599;DHT22;8918;52.092;5.232;2023-03-18T05:26:27;11.20;99.90
17599;DHT22;8918;52.092;5.232;2023-03-18T05:28:53;11.20;99.90
17599;DHT22;8918;52.092;5.232;2023-03-18T05:31:19;11.20;99.90
17599;DHT22;8918;52.092;5.232;2023-03-18T05:33:45;11.20;99.90
17599;DHT22;8918;52.092;5.232;2023-03-18T05:36:11;11.10;99.90
17599;DHT22;8918;52.092;5.232;2023-03-18T05:38:37;11.10;99.90
17599;DHT22;8918;52.092;5.232;2023-03-18T05:41:03;11.10;99.90
17599;DHT22;8918;52.092;5.232;2023-03-18T05:43:29;11.10;99.90
17599;DHT22;8918;52.092;5.232;2023-03-18T05:45:54;11.10;99.90
17599;DHT22;8918;52.092;5.232;2023-03-18T05:48:20;11.10;99.90
17599;DHT22;8918;52.092;5.232;2023-03-18T05:50:46;11.10;99.90
17599;DHT22;8918;52.092;5.232;2023-03-18T05:53:12;11.00;99.90
17599;DHT22;8918;52.092;5.232;2023-03-18T05:55:41;11.10;99.90
17599;DHT22;8918;52.092;5.232;2023-03-18T05:58:07;11.00;99.90
17599;DHT22;8918;52.092;5.232;2023-03-18T06:00:33;11.00;99.90
17599;DHT22;8918;52.092;5.232;2023-03-18T06:02:59;10.90;99.90
17599;DHT22;8918;52.092;5.232;2023-03-18T06:05:26;10.90;99.90
17599;DHT22;8918;52.092;5.232;2023-03-18T06:07:53;11.00;99.90
17599;DHT22;8918;52.092;5.232;2023-03-18T06:10:19;11.00;99.90
17599;DHT22;8918;52.092;5.232;2023-03-18T06:12:45;11.00;99.90
17599;DHT22;8918;52.092;5.232;2023-03-18T06:15:11;11.00;99.90
17599;DHT22;8918;52.092;5.232;2023-03-18T06:17:38;11.00;99.90
17599;DHT22;8918;52.092;5.232;2023-03-18T06:20:05;11.00;99.90
17599;DHT22;8918;52.092;5.232;2023-03-18T06:22:31;11.00;99.90
17599;DHT22;8918;52.092;5.232;2023-03-18T06:24:57;11.00;99.90
17599;DHT22;8918;52.092;5.232;2023-03-18T06:27:22;11.00;99.90
17599;DHT22;8918;52.092;5.232;2023-03-18T06:29:48;11.00;99.90
17599;DHT22;8918;52.092;5.232;2023-03-18T06:32:14;10.90;99.90
17599;DHT22;8918;52.092;5.232;2023-03-18T06:34:40;11.00;99.90
17599;DHT22;8918;52.092;5.232;2023-03-18T06:37:06;11.00;99.90
17599;DHT22;8918;52.092;5.232;2023-03-18T06:39:32;11.10;99.90
17599;DHT22;8918;52.092;5.232;2023-03-18T06:41:59;11.10;99.90
17599;DHT22;8918;52.092;5.232;2023-03-18T06:44:25;11.10;99.90
17599;DHT22;8918;52.092;5.232;2023-03-18T06:46:51;11.10;99.90
17599;DHT22;8918;52.092;5.232;2023-03-18T06:49:17;11.10;99.90
17599;DHT22;8918;52.092;5.232;2023-03-18T06:51:42;11.10;99.90
17599;DHT22;8918;52.092;5.232;2023-03-18T06:54:08;11.10;99.90
17599;DHT22;8918;52.092;5.232;2023-03-18T06:56:35;11.10;99.90
17599;DHT22;8918;52.092;5.232;2023-03-18T06:59:07;11.20;99.90
17599;DHT22;8918;52.092;5.232;2023-03-18T07:01:34;11.30;99.90
17599;DHT22;8918;52.092;5.232;2023-03-18T07:04:00;11.30;99.90
17599;DHT22;8918;52.092;5.232;2023-03-18T07:06:27;11.30;99.90
17599;DHT22;8918;52.092;5.232;2023-03-18T07:08:54;11.30;99.90
17599;DHT22;8918;52.092;5.232;2023-03-18T07:11:20;11.30;99.90
17599;DHT22;8918;52.092;5.232;2023-03-18T07:13:46;11.40;99.90
17599;DHT22;8918;52.092;5.232;2023-03-18T07:16:12;11.40;99.90
17599;DHT22;8918;52.092;5.232;2023-03-18T07:18:37;11.40;99.90
17599;DHT22;8918;52.092;5.232;2023-03-18T07:21:03;11.50;99.90
17599;DHT22;8918;52.092;5.232;2023-03-18T07:23:29;11.60;99.90
17599;DHT22;8918;52.092;5.232;2023-03-18T07:25:55;11.60;99.90
17599;DHT22;8918;52.092;5.232;2023-03-18T07:28:21;11.60;99.90
17599;DHT22;8918;52.092;5.232;2023-03-18T07:30:47;11.70;99.90
17599;DHT22;8918;52.092;5.232;2023-03-18T07:33:14;11.70;99.90
17599;DHT22;8918;52.092;5.232;2023-03-18T07:35:40;11.70;99.90
17599;DHT22;8918;52.092;5.232;2023-03-18T07:38:09;11.70;99.90
17599;DHT22;8918;52.092;5.232;2023-03-18T07:40:36;11.70;99.90
17599;DHT22;8918;52.092;5.232;2023-03-18T07:43:05;11.80;99.90
17599;DHT22;8918;52.092;5.232;2023-03-18T07:45:31;11.80;99.90
17599;DHT22;8918;52.092;5.232;2023-03-18T07:47:57;11.90;99.90
17599;DHT22;8918;52.092;5.232;2023-03-18T07:50:22;12.00;99.90
17599;DHT22;8918;52.092;5.232;2023-03-18T07:52:48;12.00;99.90
17599;DHT22;8918;52.092;5.232;2023-03-18T07:55:14;12.00;99.90
17599;DHT22;8918;52.092;5.232;2023-03-18T07:57:39;12.00;99.90
17599;DHT22;8918;52.092;5.232;2023-03-18T08:00:07;12.10;99.90
17599;DHT22;8918;52.092;5.232;2023-03-18T08:02:33;12.10;99.90
17599;DHT22;8918;52.092;5.232;2023-03-18T08:05:00;12.10;99.90
17599;DHT22;8918;52.092;5.232;2023-03-18T08:07:26;12.20;99.90
17599;DHT22;8918;52.092;5.232;2023-03-18T08:09:51;12.20;99.90
17599;DHT22;8918;52.092;5.232;2023-03-18T08:12:17;12.30;99.90
17599;DHT22;8918;52.092;5.232;2023-03-18T08:14:43;12.30;99.90
17599;DHT22;8918;52.092;5.232;2023-03-18T08:17:08;12.30;99.90
17599;DHT22;8918;52.092;5.232;2023-03-18T08:19:34;12.40;99.90
17599;DHT22;8918;52.092;5.232;2023-03-18T08:22:00;12.40;99.90
17599;DHT22;8918;52.092;5.232;2023-03-18T08:24:26;12.50;99.90
17599;DHT22;8918;52.092;5.232;2023-03-18T08:26:52;12.50;99.90
17599;DHT22;8918;52.092;5.232;2023-03-18T08:29:17;12.60;99.90
17599;DHT22;8918;52.092;5.232;2023-03-18T08:31:43;12.60;99.90
17599;DHT22;8918;52.092;5.232;2023-03-18T08:34:09;12.70;99.90
17599;DHT22;8918;52.092;5.232;2023-03-18T08:36:35;12.70;99.90
17599;DHT22;8918;52.092;5.232;2023-03-18T08:39:02;12.70;99.90
17599;DHT22;8918;52.092;5.232;2023-03-18T08:41:28;12.70;99.90
17599;DHT22;8918;52.092;5.232;2023-03-18T08:43:53;12.80;99.90
17599;DHT22;8918;52.092;5.232;2023-03-18T08:46:22;12.80;99.90
17599;DHT22;8918;52.092;5.232;2023-03-18T08:48:48;12.80;99.90
17599;DHT22;8918;52.092;5.232;2023-03-18T08:51:14;12.80;99.90
17599;DHT22;8918;52.092;5.232;2023-03-18T08:53:41;12.80;99.90
17599;DHT22;8918;52.092;5.232;2023-03-18T08:56:06;12.80;99.90
17599;DHT22;8918;52.092;5.232;2023-03-18T08:58:34;13.00;99.90
17599;DHT22;8918;52.092;5.232;2023-03-18T09:01:01;13.10;99.90
17599;DHT22;8918;52.092;5.232;2023-03-18T09:03:28;13.20;99.90
17599;DHT22;8918;52.092;5.232;2023-03-18T09:05:54;13.40;99.90
17599;DHT22;8918;52.092;5.232;2023-03-18T09:08:20;13.50;99.90
17599;DHT22;8918;52.092;5.232;2023-03-18T09:10:47;13.60;99.90
17599;DHT22;8918;52.092;5.232;2023-03-18T09:13:15;13.70;99.90
17599;DHT22;8918;52.092;5.232;2023-03-18T09:15:40;13.80;99.90
17599;DHT22;8918;52.092;5.232;2023-03-18T09:18:06;13.80;99.90
17599;DHT22;8918;52.092;5.232;2023-03-18T09:20:32;13.80;99.90
17599;DHT22;8918;52.092;5.232;2023-03-18T09:22:59;13.80;99.90
17599;DHT22;8918;52.092;5.232;2023-03-18T09:25:25;13.90;99.90
17599;DHT22;8918;52.092;5.232;2023-03-18T09:27:51;14.10;99.90
17599;DHT22;8918;52.092;5.232;2023-03-18T09:30:17;14.30;99.90
17599;DHT22;8918;52.092;5.232;2023-03-18T09:32:43;14.50;99.90
17599;DHT22;8918;52.092;5.232;2023-03-18T09:35:09;14.60;99.90
17599;DHT22;8918;52.092;5.232;2023-03-18T09:37:35;14.70;99.90
17599;DHT22;8918;52.092;5.232;2023-03-18T09:40:02;14.90;99.90
17599;DHT22;8918;52.092;5.232;2023-03-18T09:45:08;15.20;99.90
17599;DHT22;8918;52.092;5.232;2023-03-18T09:50:44;15.00;99.90
17599;DHT22;8918;52.092;5.232;2023-03-18T09:53:29;14.90;99.90
17599;DHT22;8918;52.092;5.232;2023-03-18T09:55:58;14.90;99.90
17599;DHT22;8918;52.092;5.232;2023-03-18T10:01:12;15.00;99.90
17599;DHT22;8918;52.092;5.232;2023-03-18T10:06:25;15.30;99.90
17599;DHT22;8918;52.092;5.232;2023-03-18T10:11:29;15.40;99.90
17599;DHT22;8918;52.092;5.232;2023-03-18T10:17:13;15.80;99.90
17599;DHT22;8918;52.092;5.232;2023-03-18T10:19:50;15.80;99.90
17599;DHT22;8918;52.092;5.232;2023-03-18T10:25:56;15.90;99.90
17599;DHT22;8918;52.092;5.232;2023-03-18T10:31:09;16.10;99.90
17599;DHT22;8918;52.092;5.232;2023-03-18T10:36:30;16.80;99.90
17599;DHT22;8918;52.092;5.232;2023-03-18T10:38:59;16.90;99.90
17599;DHT22;8918;52.092;5.232;2023-03-18T10:41:31;16.80;99.90
17599;DHT22;8918;52.092;5.232;2023-03-18T10:44:02;16.60;99.90
17599;DHT22;8918;52.092;5.232;2023-03-18T10:46:28;16.60;99.90
17599;DHT22;8918;52.092;5.232;2023-03-18T10:49:11;16.60;99.90
17599;DHT22;8918;52.092;5.232;2023-03-18T10:51:48;16.70;99.90
17599;DHT22;8918;52.092;5.232;2023-03-18T10:56:45;17.00;99.90
17599;DHT22;8918;52.092;5.232;2023-03-18T10:59:20;17.50;99.90
17599;DHT22;8918;52.092;5.232;2023-03-18T11:01:51;18.20;99.90
17599;DHT22;8918;52.092;5.232;2023-03-18T11:04:19;18.60;99.90
17599;DHT22;8918;52.092;5.232;2023-03-18T11:06:59;18.20;99.90
17599;DHT22;8918;52.092;5.232;2023-03-18T11:09:34;17.60;99.90
17599;DHT22;8918;52.092;5.232;2023-03-18T11:12:15;17.60;99.90
17599;DHT22;8918;52.092;5.232;2023-03-18T11:14:49;18.30;99.90
17599;DHT22;8918;52.092;5.232;2023-03-18T11:17:31;19.30;99.90
17599;DHT22;8918;52.092;5.232;2023-03-18T11:22:47;20.00;99.90
17599;DHT22;8918;52.092;5.232;2023-03-18T11:25:22;19.30;99.90
17599;DHT22;8918;52.092;5.232;2023-03-18T11:28:21;18.60;99.90
17599;DHT22;8918;52.092;5.232;2023-03-18T11:30:49;18.00;99.90
17599;DHT22;8918;52.092;5.232;2023-03-18T11:33:18;17.40;99.90
17599;DHT22;8918;52.092;5.232;2023-03-18T11:35:58;16.90;99.90
17599;DHT22;8918;52.092;5.232;2023-03-18T11:38:32;16.60;99.90
17599;DHT22;8918;52.092;5.232;2023-03-18T11:41:05;16.30;99.90
17599;DHT22;8918;52.092;5.232;2023-03-18T11:43:33;16.20;99.90
17599;DHT22;8918;52.092;5.232;2023-03-18T11:46:07;16.20;99.90
17599;DHT22;8918;52.092;5.232;2023-03-18T11:48:35;16.10;99.90
17599;DHT22;8918;52.092;5.232;2023-03-18T12:00:01;15.80;99.90
17599;DHT22;8918;52.092;5.232;2023-03-18T12:05:21;15.90;99.90
17599;DHT22;8918;52.092;5.232;2023-03-18T12:13:50;16.20;99.90
17599;DHT22;8918;52.092;5.232;2023-03-18T12:27:57;16.30;99.90
17599;DHT22;8918;52.092;5.232;2023-03-18T12:33:57;15.90;99.90
17599;DHT22;8918;52.092;5.232;2023-03-18T12:44:29;15.20;99.90
17599;DHT22;8918;52.092;5.232;2023-03-18T12:50:08;15.20;99.90
17599;DHT22;8918;52.092;5.232;2023-03-18T12:52:40;15.10;99.90
17599;DHT22;8918;52.092;5.232;2023-03-18T12:55:26;15.10;99.90
17599;DHT22;8918;52.092;5.232;2023-03-18T12:58:09;15.10;99.90
17599;DHT22;8918;52.092;5.232;2023-03-18T13:06:36;15.10;99.90
17599;DHT22;8918;52.092;5.232;2023-03-18T13:12:15;15.10;99.90
17599;DHT22;8918;52.092;5.232;2023-03-18T13:14:58;15.00;99.90
17599;DHT22;8918;52.092;5.232;2023-03-18T13:17:34;15.00;99.90
17599;DHT22;8918;52.092;5.232;2023-03-18T13:26:10;15.50;99.90
17599;DHT22;8918;52.092;5.232;2023-03-18T13:33:49;16.60;99.90
17599;DHT22;8918;52.092;5.232;2023-03-18T13:44:27;16.30;99.90
17599;DHT22;8918;52.092;5.232;2023-03-18T13:47:01;16.10;99.90
17599;DHT22;8918;52.092;5.232;2023-03-18T13:49:30;16.00;99.90
17599;DHT22;8918;52.092;5.232;2023-03-18T13:52:00;16.00;99.90
17599;DHT22;8918;52.092;5.232;2023-03-18T13:54:35;16.00;99.90
17599;DHT22;8918;52.092;5.232;2023-03-18T13:57:33;16.10;99.90
17599;DHT22;8918;52.092;5.232;2023-03-18T14:02:44;16.10;99.90
17599;DHT22;8918;52.092;5.232;2023-03-18T14:05:36;16.10;99.90
17599;DHT22;8918;52.092;5.232;2023-03-18T14:13:51;16.10;99.90
17599;DHT22;8918;52.092;5.232;2023-03-18T14:16:21;16.10;99.90
17599;DHT22;8918;52.092;5.232;2023-03-18T14:19:16;16.20;99.90
17599;DHT22;8918;52.092;5.232;2023-03-18T14:21:50;16.20;99.90
17599;DHT22;8918;52.092;5.232;2023-03-18T14:29:38;16.40;99.90
17599;DHT22;8918;52.092;5.232;2023-03-18T14:35:20;17.00;99.90
17599;DHT22;8918;52.092;5.232;2023-03-18T14:40:47;17.90;99.90
17599;DHT22;8918;52.092;5.232;2023-03-18T14:43:28;18.20;99.90
17599;DHT22;8918;52.092;5.232;2023-03-18T14:46:01;18.30;99.90
17599;DHT22;8918;52.092;5.232;2023-03-18T14:48:31;18.40;99.90
17599;DHT22;8918;52.092;5.232;2023-03-18T14:51:18;18.70;99.90
17599;DHT22;8918;52.092;5.232;2023-03-18T14:53:51;19.00;99.90
17599;DHT22;8918;52.092;5.232;2023-03-18T14:56:19;19.20;99.90
17599;DHT22;8918;52.092;5.232;2023-03-18T14:58:46;19.10;99.90
17599;DHT22;8918;52.092;5.232;2023-03-18T15:01:13;19.10;99.90
17599;DHT22;8918;52.092;5.232;2023-03-18T15:03:43;19.10;99.90
17599;DHT22;8918;52.092;5.232;2023-03-18T15:06:18;19.20;99.90
17599;DHT22;8918;52.092;5.232;2023-03-18T15:08:50;19.40;99.90
17599;DHT22;8918;52.092;5.232;2023-03-18T15:11:19;19.40;99.90
17599;DHT22;8918;52.092;5.232;2023-03-18T15:13:47;19.30;99.90
17599;DHT22;8918;52.092;5.232;2023-03-18T15:16:17;19.20;99.90
17599;DHT22;8918;52.092;5.232;2023-03-18T15:18:44;19.00;99.90
17599;DHT22;8918;52.092;5.232;2023-03-18T15:21:25;18.90;99.90
17599;DHT22;8918;52.092;5.232;2023-03-18T15:24:01;18.80;99.90
17599;DHT22;8918;52.092;5.232;2023-03-18T15:26:32;18.60;99.90
17599;DHT22;8918;52.092;5.232;2023-03-18T15:29:01;18.60;99.90
17599;DHT22;8918;52.092;5.232;2023-03-18T15:31:37;18.70;99.90
17599;DHT22;8918;52.092;5.232;2023-03-18T15:36:49;19.10;99.90
17599;DHT22;8918;52.092;5.232;2023-03-18T15:41:53;19.40;99.90
17599;DHT22;8918;52.092;5.232;2023-03-18T15:44:31;19.30;99.90
17599;DHT22;8918;52.092;5.232;2023-03-18T15:47:29;19.10;99.90
17599;DHT22;8918;52.092;5.232;2023-03-18T15:49:58;19.00;99.90
17599;DHT22;8918;52.092;5.232;2023-03-18T15:52:32;18.90;99.90
17599;DHT22;8918;52.092;5.232;2023-03-18T15:54:58;18.70;99.90
17599;DHT22;8918;52.092;5.232;2023-03-18T15:59:59;18.50;99.90
17599;DHT22;8918;52.092;5.232;2023-03-18T16:02:26;18.40;99.90
17599;DHT22;8918;52.092;5.232;2023-03-18T16:05:04;18.20;99.90
17599;DHT22;8918;52.092;5.232;2023-03-18T16:07:30;18.00;99.90
17599;DHT22;8918;52.092;5.232;2023-03-18T16:09:56;17.80;99.90
17599;DHT22;8918;52.092;5.232;2023-03-18T16:12:23;17.60;99.90
17599;DHT22;8918;52.092;5.232;2023-03-18T16:14:51;17.60;99.90
17599;DHT22;8918;52.092;5.232;2023-03-18T16:17:24;17.60;99.90
17599;DHT22;8918;52.092;5.232;2023-03-18T16:19:49;17.50;99.90
17599;DHT22;8918;52.092;5.232;2023-03-18T16:22:19;17.40;99.90
17599;DHT22;8918;52.092;5.232;2023-03-18T16:24:46;17.30;99.90
17599;DHT22;8918;52.092;5.232;2023-03-18T16:27:39;17.20;99.90
17599;DHT22;8918;52.092;5.232;2023-03-18T16:30:06;17.20;99.90
17599;DHT22;8918;52.092;5.232;2023-03-18T16:32:32;17.20;99.90
17599;DHT22;8918;52.092;5.232;2023-03-18T16:34:59;17.10;99.90
17599;DHT22;8918;52.092;5.232;2023-03-18T16:37:25;16.90;99.90
17599;DHT22;8918;52.092;5.232;2023-03-18T16:39:55;16.80;99.90
17599;DHT22;8918;52.092;5.232;2023-03-18T16:42:23;16.70;99.90
17599;DHT22;8918;52.092;5.232;2023-03-18T16:44:49;16.60;99.90
17599;DHT22;8918;52.092;5.232;2023-03-18T16:47:24;16.40;99.90
17599;DHT22;8918;52.092;5.232;2023-03-18T16:49:50;16.40;99.90
17599;DHT22;8918;52.092;5.232;2023-03-18T16:52:16;16.30;99.90
17599;DHT22;8918;52.092;5.232;2023-03-18T16:54:43;16.20;99.90
17599;DHT22;8918;52.092;5.232;2023-03-18T16:57:17;16.10;99.90
17599;DHT22;8918;52.092;5.232;2023-03-18T16:59:49;16.00;99.90
17599;DHT22;8918;52.092;5.232;2023-03-18T17:04:55;15.90;99.90
17599;DHT22;8918;52.092;5.232;2023-03-18T17:07:21;15.90;99.90
17599;DHT22;8918;52.092;5.232;2023-03-18T17:09:46;15.80;99.90
17599;DHT22;8918;52.092;5.232;2023-03-18T17:12:12;15.70;99.90
17599;DHT22;8918;52.092;5.232;2023-03-18T17:14:42;15.60;99.90
17599;DHT22;8918;52.092;5.232;2023-03-18T17:17:26;15.60;99.90
17599;DHT22;8918;52.092;5.232;2023-03-18T17:19:53;15.50;99.90
17599;DHT22;8918;52.092;5.232;2023-03-18T17:22:25;15.40;99.90
17599;DHT22;8918;52.092;5.232;2023-03-18T17:24:52;15.40;99.90
17599;DHT22;8918;52.092;5.232;2023-03-18T17:27:20;15.30;99.90
17599;DHT22;8918;52.092;5.232;2023-03-18T17:29:47;15.30;99.90
17599;DHT22;8918;52.092;5.232;2023-03-18T17:32:12;15.20;99.90
17599;DHT22;8918;52.092;5.232;2023-03-18T17:34:38;15.10;99.90
17599;DHT22;8918;52.092;5.232;2023-03-18T17:37:04;15.00;99.90
17599;DHT22;8918;52.092;5.232;2023-03-18T17:39:29;15.00;99.90
17599;DHT22;8918;52.092;5.232;2023-03-18T17:41:55;14.90;99.90
17599;DHT22;8918;52.092;5.232;2023-03-18T17:44:24;14.90;99.90
17599;DHT22;8918;52.092;5.232;2023-03-18T17:46:50;14.80;99.90
17599;DHT22;8918;52.092;5.232;2023-03-18T17:49:18;14.80;99.90
17599;DHT22;8918;52.092;5.232;2023-03-18T17:51:46;14.70;99.90
17599;DHT22;8918;52.092;5.232;2023-03-18T17:54:20;14.60;99.90
17599;DHT22;8918;52.092;5.232;2023-03-18T17:56:46;14.50;99.90
17599;DHT22;8918;52.092;5.232;2023-03-18T17:59:14;14.50;99.90
17599;DHT22;8918;52.092;5.232;2023-03-18T18:01:41;14.50;99.90
17599;DHT22;8918;52.092;5.232;2023-03-18T18:04:16;14.50;99.90
17599;DHT22;8918;52.092;5.232;2023-03-18T18:06:43;14.50;99.90
17599;DHT22;8918;52.092;5.232;2023-03-18T18:09:11;14.50;99.90
17599;DHT22;8918;52.092;5.232;2023-03-18T18:11:43;14.40;99.90
17599;DHT22;8918;52.092;5.232;2023-03-18T18:14:23;14.30;99.90
17599;DHT22;8918;52.092;5.232;2023-03-18T18:16:51;14.20;99.90
17599;DHT22;8918;52.092;5.232;2023-03-18T18:19:17;14.30;99.90